Futenma Marine Corps Air Station
ROTM : now visible

Airfield :











YOU CAN JOIN US ON...

 
LOGIN :

Register | Disclaimer

   EN    FR    IT 

 









Legend :    VFR   Marginal VFR   IFR   Intensive IFR   Very Intensive IFR
Visi :
Ceiling :
>= 8 km
>= 3000ft
5 to 8 km
1000 to 3000 ft
1500m to 5 km
500 to 1000 ft
800 to 1500m
200 to 500 ft
< 800m
< 200 ft
Symbols :   Thunderstorms  Fog  Heavy snow  Heavy precipitations  Wind > 20 kt






- Airport Elevation : 247 ft


ROTM - Futenma Marine Corps Air Station

CURRENT METAR :
  • 240456Z 34010G18KT 9999 BKN015 OVC030 23/21 A2987 RMK SLP113 T02340206

EXPIRED METARs :
  • 240356Z 34011KT 9999 BKN010 OVC030 24/21 A2986 RMK SLP112 T02440211
  • 240256Z 32007KT 9999 BKN010 OVC030 25/22 A2987 RMK SLP111 T02500217 53005
  • 240156Z 34008KT 9999 BKN010 OVC030 25/23 A2985 RMK SLP109 T02500233

TAF TAF ROTM
Valid from the 24 at 03:00 until the 25 at 03:00 UTC


2403/2503 35010KT 9999 VCSH BKN010 BKN025 OVC080 510203 QNH2980INS
TEMPO 2404/2410 35011G19KT 8000 -SHRA BR BKN008 OVC025
FM241300 03008KT 9999 VCSH SCT012 BKN030 BKN060 510303 QNH2983INS
TEMPO 2414/2419 9000 -SHRA BR BKN009 T26/2404Z T20/2421Z
RJJJ FIR / Asia



MET'MAP, your aeronautical weather chart ! - Copyright ORBIFLY December 2007 - Disclaimer

ORBIFLY MET'MAP TEAM :

Programming & Development : Alexandra Zaïnal
Original concept : Baudouin d'Aumeries
Technical & hardware support : Manuel Goepfert
Assistance : Marc-Olivier Méhu




SOURCES & CREDITS :

   NOAA       Earth
Advisory